createdAt,value
2018-03-31T00:00:10.108Z,8.30
2018-03-31T00:02:40.104Z,8.50
2018-03-31T00:05:09.264Z,8.50
2018-03-31T00:07:39.179Z,8.40
2018-03-31T00:10:09.258Z,8.20
2018-03-31T00:12:38.424Z,8.20
2018-03-31T00:15:08.329Z,8.30
2018-03-31T00:17:38.244Z,8.30
2018-03-31T00:20:07.484Z,8.30
2018-03-31T00:22:36.658Z,8.20
2018-03-31T00:25:06.591Z,8.20
2018-03-31T00:27:35.772Z,8.20
2018-03-31T00:30:05.767Z,8.30
2018-03-31T00:32:35.715Z,8.20
2018-03-31T00:35:05.676Z,8.50
2018-03-31T00:37:34.791Z,8.40
2018-03-31T00:40:04.724Z,8.30
2018-03-31T00:42:33.883Z,8.30
2018-03-31T00:45:03.791Z,8.10
2018-03-31T00:47:33.719Z,8.10
2018-03-31T00:50:03.672Z,7.90
2018-03-31T00:52:32.844Z,7.90
2018-03-31T00:55:02.007Z,8.10
2018-03-31T00:57:31.143Z,8.20
2018-03-31T01:00:00.324Z,8.00
2018-03-31T01:02:30.244Z,8.60
2018-03-31T01:05:00.151Z,8.50
2018-03-31T01:07:30.104Z,8.20
2018-03-31T01:09:59.228Z,8.20
2018-03-31T01:12:28.348Z,7.80
2018-03-31T01:14:57.674Z,7.70
2018-03-31T01:17:26.864Z,7.60
2018-03-31T01:19:56.851Z,8.00
2018-03-31T01:22:26.903Z,8.10
2018-03-31T01:24:56.112Z,8.10
2018-03-31T01:27:25.272Z,8.10
2018-03-31T01:29:55.224Z,8.10
2018-03-31T01:32:24.448Z,8.10
2018-03-31T01:34:53.684Z,8.00
2018-03-31T01:37:22.871Z,7.90
2018-03-31T01:39:52.104Z,7.90
2018-03-31T01:42:21.306Z,8.10
2018-03-31T01:44:50.482Z,8.10
2018-03-31T01:47:19.784Z,7.60
2018-03-31T01:49:49.927Z,7.40
2018-03-31T01:52:19.111Z,7.30
2018-03-31T01:54:48.292Z,7.40
2018-03-31T01:57:17.508Z,7.50
2018-03-31T01:59:46.680Z,7.40
2018-03-31T02:02:16.643Z,7.20
2018-03-31T02:04:46.632Z,7.00
2018-03-31T02:07:15.835Z,7.00
2018-03-31T02:09:45.011Z,7.20
2018-03-31T02:12:14.250Z,7.40
2018-03-31T02:14:43.472Z,7.20
2018-03-31T02:17:13.571Z,7.20
2018-03-31T02:19:42.723Z,7.20
2018-03-31T02:22:12.672Z,7.30
2018-03-31T02:24:41.871Z,7.30
2018-03-31T02:27:11.064Z,7.30
2018-03-31T02:29:40.224Z,7.30
2018-03-31T02:32:10.163Z,7.30
2018-03-31T02:34:40.402Z,7.40
2018-03-31T02:37:09.648Z,7.40
2018-03-31T02:39:39.643Z,7.40
2018-03-31T02:42:09.612Z,7.30
2018-03-31T02:44:38.844Z,7.20
2018-03-31T02:47:08.023Z,7.10
2018-03-31T02:49:37.203Z,7.10
2018-03-31T02:52:07.134Z,7.10
2018-03-31T02:54:36.351Z,7.10
2018-03-31T02:57:05.609Z,7.10
2018-03-31T02:59:35.564Z,7.20
2018-03-31T03:02:05.584Z,7.20
2018-03-31T03:04:34.743Z,7.20
2018-03-31T03:07:04.683Z,7.00
2018-03-31T03:09:33.852Z,7.00
2018-03-31T03:12:03.763Z,6.70
2018-03-31T03:14:32.965Z,6.70
2018-03-31T03:17:01.865Z,6.90
2018-03-31T03:19:30.745Z,6.80
2018-03-31T03:22:00.411Z,6.50
2018-03-31T03:24:29.334Z,6.50
2018-03-31T03:26:59.063Z,6.50
2018-03-31T03:29:27.903Z,6.40
2018-03-31T03:31:56.763Z,6.40
2018-03-31T03:34:25.634Z,6.40
2018-03-31T03:36:54.534Z,6.60
2018-03-31T03:39:23.403Z,6.40
2018-03-31T03:41:53.012Z,6.60
2018-03-31T03:44:21.925Z,6.60
2018-03-31T03:46:50.789Z,6.50
2018-03-31T03:49:20.415Z,6.50
2018-03-31T03:51:49.311Z,6.50
2018-03-31T03:54:18.183Z,6.40
2018-03-31T03:56:47.071Z,6.30
2018-03-31T03:59:15.915Z,6.10
2018-03-31T04:01:45.563Z,6.20
2018-03-31T04:04:15.186Z,6.20
2018-03-31T04:06:44.046Z,6.20
2018-03-31T04:09:13.688Z,6.10
2018-03-31T04:11:42.543Z,6.10
2018-03-31T04:14:12.183Z,6.20
2018-03-31T04:16:41.023Z,6.20
2018-03-31T04:19:10.663Z,6.00
2018-03-31T04:21:39.527Z,6.00
2018-03-31T04:24:08.423Z,6.00
2018-03-31T04:26:38.063Z,6.10
2018-03-31T04:29:06.938Z,6.00
2018-03-31T04:31:35.903Z,6.10
2018-03-31T04:34:04.783Z,6.10
2018-03-31T04:36:33.686Z,6.10
2018-03-31T04:39:03.364Z,6.10
2018-03-31T04:41:32.231Z,6.10
2018-03-31T04:44:01.104Z,6.10
2018-03-31T04:46:29.987Z,6.10
2018-03-31T04:48:58.843Z,6.10
2018-03-31T04:51:28.531Z,5.80
2018-03-31T04:53:57.398Z,5.80
2018-03-31T04:56:26.269Z,5.80
2018-03-31T04:58:55.903Z,5.70
2018-03-31T05:01:24.898Z,5.70
2018-03-31T05:03:53.799Z,5.60
2018-03-31T05:06:22.724Z,5.60
2018-03-31T05:08:52.424Z,5.50
2018-03-31T05:11:22.948Z,5.50
2018-03-31T05:13:52.643Z,5.50
2018-03-31T05:16:22.390Z,5.40
2018-03-31T05:18:52.074Z,5.50
2018-03-31T05:21:21.744Z,5.40
2018-03-31T05:23:50.625Z,5.40
2018-03-31T05:26:19.456Z,5.40
2018-03-31T05:28:49.125Z,5.40
2018-03-31T05:31:18.808Z,5.40
2018-03-31T05:33:48.485Z,5.40
2018-03-31T05:36:18.219Z,5.40
2018-03-31T05:38:47.849Z,5.40
2018-03-31T05:41:16.727Z,5.40
2018-03-31T05:43:45.604Z,5.40
2018-03-31T05:46:15.206Z,5.30
2018-03-31T05:48:44.825Z,5.40
2018-03-31T05:51:13.705Z,5.40
2018-03-31T05:53:43.363Z,5.40
2018-03-31T05:56:12.226Z,5.30
2018-03-31T05:58:41.846Z,5.30
2018-03-31T06:01:10.705Z,5.30
2018-03-31T06:03:40.393Z,5.30
2018-03-31T06:06:09.251Z,5.20
2018-03-31T06:08:38.131Z,5.30
2018-03-31T06:11:07.023Z,5.30
2018-03-31T06:13:35.836Z,5.30
2018-03-31T06:16:04.764Z,5.30
2018-03-31T06:18:34.422Z,5.20
2018-03-31T06:21:03.392Z,5.20
2018-03-31T06:23:32.303Z,5.20
2018-03-31T06:26:01.161Z,5.20
2018-03-31T06:28:30.791Z,5.30
2018-03-31T06:30:59.663Z,5.30
2018-03-31T06:33:28.583Z,5.30
2018-03-31T06:35:57.514Z,5.30
2018-03-31T06:38:27.172Z,5.40
2018-03-31T06:40:56.003Z,5.40
2018-03-31T06:43:25.864Z,5.50
2018-03-31T06:45:54.727Z,5.40
2018-03-31T06:48:24.366Z,5.50
2018-03-31T06:50:53.223Z,5.40
2018-03-31T06:53:22.906Z,5.60
2018-03-31T06:55:52.891Z,5.60
2018-03-31T06:58:22.064Z,5.60
2018-03-31T07:00:51.143Z,5.60
2018-03-31T07:03:20.944Z,5.50
2018-03-31T07:05:50.791Z,5.50
2018-03-31T07:08:19.748Z,5.40
2018-03-31T07:10:48.734Z,5.50
2018-03-31T07:13:17.804Z,5.50
2018-03-31T07:15:46.776Z,5.50
2018-03-31T07:18:15.685Z,5.60
2018-03-31T07:20:44.566Z,5.50
2018-03-31T07:23:13.440Z,5.60
2018-03-31T07:25:42.311Z,5.60
2018-03-31T07:28:11.203Z,5.60
2018-03-31T07:30:40.084Z,5.60
2018-03-31T07:33:09.081Z,5.60
2018-03-31T07:35:38.730Z,5.60
2018-03-31T07:38:07.612Z,5.60
2018-03-31T07:40:36.483Z,5.70
2018-03-31T07:43:05.383Z,5.70
2018-03-31T07:45:34.252Z,5.70
2018-03-31T07:48:03.143Z,5.70
2018-03-31T07:50:32.003Z,5.70
2018-03-31T07:53:01.666Z,5.80
2018-03-31T07:55:30.530Z,5.80
2018-03-31T07:57:59.431Z,5.80
2018-03-31T08:00:28.303Z,5.90
2018-03-31T08:02:57.184Z,5.80
2018-03-31T08:05:26.796Z,5.90
2018-03-31T08:07:56.463Z,6.00
2018-03-31T08:10:25.330Z,6.00
2018-03-31T08:12:54.280Z,6.00
2018-03-31T08:15:23.932Z,6.00
2018-03-31T08:17:52.804Z,6.00
2018-03-31T08:20:21.691Z,6.20
2018-03-31T08:22:50.583Z,6.30
2018-03-31T08:25:19.427Z,6.30
2018-03-31T08:27:49.111Z,6.40
2018-03-31T08:30:18.244Z,6.40
2018-03-31T08:32:47.911Z,6.40
2018-03-31T08:35:16.791Z,6.30
2018-03-31T08:37:45.706Z,6.40
2018-03-31T08:40:14.588Z,6.60
2018-03-31T08:42:43.484Z,6.60
2018-03-31T08:45:12.377Z,6.60
2018-03-31T08:47:41.305Z,6.70
2018-03-31T08:50:10.208Z,6.60
2018-03-31T08:52:39.102Z,6.60
2018-03-31T08:55:07.992Z,6.70
2018-03-31T08:57:36.881Z,6.80
2018-03-31T09:00:05.776Z,6.90
2018-03-31T09:02:34.655Z,6.90
2018-03-31T09:05:04.312Z,6.80
2018-03-31T09:07:33.173Z,6.80
2018-03-31T09:10:02.064Z,7.00
2018-03-31T09:12:30.936Z,7.10
2018-03-31T09:14:59.775Z,7.10
2018-03-31T09:17:28.644Z,7.30
2018-03-31T09:19:57.511Z,7.40
2018-03-31T09:22:26.425Z,7.40
2018-03-31T09:24:55.291Z,7.50
2018-03-31T09:27:24.229Z,7.70
2018-03-31T09:29:53.045Z,7.40
2018-03-31T09:32:22.709Z,7.30
2018-03-31T09:34:51.612Z,7.30
2018-03-31T09:37:20.493Z,7.30
2018-03-31T09:39:49.395Z,7.40
2018-03-31T09:42:19.184Z,7.60
2018-03-31T09:44:48.076Z,7.60
2018-03-31T09:47:16.961Z,7.60
2018-03-31T09:49:45.840Z,7.70
2018-03-31T09:52:14.741Z,7.70
2018-03-31T09:54:44.484Z,7.90
2018-03-31T09:57:14.369Z,8.00
2018-03-31T09:59:43.288Z,8.00
2018-03-31T10:02:12.965Z,7.80
2018-03-31T10:04:42.803Z,7.90
2018-03-31T10:07:12.450Z,8.00
2018-03-31T10:09:41.443Z,7.90
2018-03-31T10:12:11.114Z,7.80
2018-03-31T10:14:41.451Z,7.80
2018-03-31T10:17:11.103Z,8.00
2018-03-31T10:19:39.983Z,8.00
2018-03-31T10:22:09.624Z,8.20
2018-03-31T10:24:38.491Z,8.10
2018-03-31T10:27:07.356Z,8.10
2018-03-31T10:29:37.376Z,8.30
2018-03-31T10:32:07.011Z,8.10
2018-03-31T10:34:35.860Z,8.10
2018-03-31T10:37:05.481Z,8.40
2018-03-31T10:39:35.083Z,8.60
2018-03-31T10:42:04.729Z,8.20
2018-03-31T10:44:33.657Z,8.10
2018-03-31T10:47:03.324Z,8.50
2018-03-31T10:49:32.202Z,8.50
2018-03-31T10:52:01.044Z,8.60
2018-03-31T10:54:30.724Z,9.00
2018-03-31T10:56:59.639Z,9.00
2018-03-31T10:59:29.791Z,9.30
2018-03-31T11:01:58.714Z,9.30
2018-03-31T11:04:27.602Z,9.30
2018-03-31T11:06:56.488Z,9.50
2018-03-31T11:09:25.396Z,9.50
2018-03-31T11:11:55.088Z,9.20
2018-03-31T11:14:23.987Z,9.20
2018-03-31T11:16:52.839Z,9.10
2018-03-31T11:19:22.484Z,9.20
2018-03-31T11:21:52.103Z,9.70
2018-03-31T11:24:20.964Z,9.60
2018-03-31T11:26:49.842Z,9.60
2018-03-31T11:29:20.252Z,9.80
2018-03-31T11:31:49.921Z,10.00
2018-03-31T11:34:18.764Z,10.00
2018-03-31T11:36:47.637Z,10.30
2018-03-31T11:39:17.286Z,9.90
2018-03-31T11:41:46.183Z,9.90
2018-03-31T11:44:15.896Z,9.60
2018-03-31T11:46:45.498Z,9.60
2018-03-31T11:49:16.416Z,9.50
2018-03-31T11:51:52.899Z,9.70
2018-03-31T11:54:24.372Z,9.60
2018-03-31T11:56:56.263Z,9.50
2018-03-31T11:59:28.889Z,9.60
2018-03-31T12:01:59.436Z,9.50
2018-03-31T12:04:31.388Z,9.80
2018-03-31T12:07:02.933Z,9.80
2018-03-31T12:09:32.860Z,9.80
2018-03-31T12:12:07.700Z,9.90
2018-03-31T12:14:37.485Z,9.60
2018-03-31T12:17:06.395Z,9.60
2018-03-31T12:19:35.293Z,9.70
2018-03-31T12:22:04.221Z,9.70
2018-03-31T12:24:33.864Z,10.00
2018-03-31T12:27:02.800Z,9.90
2018-03-31T12:29:32.548Z,10.10
2018-03-31T12:32:01.420Z,10.10
2018-03-31T12:34:31.088Z,10.50
2018-03-31T12:37:00.015Z,10.50
2018-03-31T12:39:29.674Z,10.50
2018-03-31T12:41:58.518Z,10.50
2018-03-31T12:44:28.188Z,10.90
2018-03-31T12:46:57.105Z,10.90
2018-03-31T12:49:26.789Z,11.20
2018-03-31T12:51:55.740Z,11.10
2018-03-31T12:54:25.886Z,11.10
2018-03-31T12:56:54.828Z,11.10
2018-03-31T12:59:23.746Z,10.90
2018-03-31T13:01:52.612Z,10.90
2018-03-31T13:04:22.301Z,10.60
2018-03-31T13:06:52.309Z,10.70
2018-03-31T13:09:22.001Z,10.90
2018-03-31T13:11:50.848Z,10.90
2018-03-31T13:14:20.545Z,10.80
2018-03-31T13:16:50.336Z,11.00
2018-03-31T13:19:19.288Z,10.90
2018-03-31T13:21:48.184Z,10.70
2018-03-31T13:24:17.990Z,10.80
2018-03-31T13:26:46.860Z,10.70
2018-03-31T13:29:16.561Z,10.50
2018-03-31T13:31:46.220Z,10.50
2018-03-31T13:34:15.129Z,10.50
2018-03-31T13:36:44.039Z,10.40
2018-03-31T13:39:13.740Z,10.60
2018-03-31T13:41:43.420Z,10.60
2018-03-31T13:44:12.343Z,10.60
2018-03-31T13:46:42.105Z,10.70
2018-03-31T13:49:10.969Z,10.70
2018-03-31T13:51:39.928Z,10.50
2018-03-31T13:54:09.588Z,10.40
2018-03-31T13:56:38.471Z,10.40
2018-03-31T13:59:07.394Z,10.50
2018-03-31T14:01:36.263Z,10.10
2018-03-31T14:04:05.141Z,9.90
2018-03-31T14:06:34.052Z,9.70
2018-03-31T14:09:02.916Z,9.60
2018-03-31T14:11:32.119Z,9.30
2018-03-31T14:14:01.067Z,9.30
2018-03-31T14:16:29.953Z,9.30
2018-03-31T14:18:58.840Z,9.10
2018-03-31T14:21:28.710Z,9.00
2018-03-31T14:23:57.558Z,9.00
2018-03-31T14:26:26.477Z,9.00
2018-03-31T14:28:55.382Z,9.10
2018-03-31T14:31:24.216Z,9.00
2018-03-31T14:33:53.861Z,8.40
2018-03-31T14:36:24.408Z,8.30
2018-03-31T14:38:53.239Z,8.30
2018-03-31T14:41:22.904Z,8.30
2018-03-31T14:43:52.671Z,8.20
2018-03-31T14:46:22.300Z,8.30
2018-03-31T14:48:51.927Z,8.20
2018-03-31T14:51:20.942Z,8.20
2018-03-31T14:53:49.840Z,8.20
2018-03-31T14:56:19.476Z,8.30
2018-03-31T14:58:49.163Z,8.00
2018-03-31T15:01:18.085Z,8.00
2018-03-31T15:03:47.844Z,8.00
2018-03-31T15:06:16.766Z,8.00
2018-03-31T15:08:45.665Z,8.00
2018-03-31T15:11:15.296Z,7.90
2018-03-31T15:13:45.287Z,7.90
2018-03-31T15:16:14.979Z,8.00
2018-03-31T15:18:43.840Z,8.00
2018-03-31T15:21:12.770Z,8.00
2018-03-31T15:23:42.467Z,7.80
2018-03-31T15:26:12.076Z,7.70
2018-03-31T15:28:40.956Z,7.70
2018-03-31T15:31:09.831Z,7.70
2018-03-31T15:33:39.662Z,7.40
2018-03-31T15:36:09.471Z,7.60
2018-03-31T15:38:38.315Z,7.60
2018-03-31T15:41:08.751Z,7.70
2018-03-31T15:43:39.404Z,7.70
2018-03-31T15:46:08.280Z,7.70
2018-03-31T15:48:37.298Z,7.80
2018-03-31T15:51:06.175Z,7.90
2018-03-31T15:53:35.041Z,7.80
2018-03-31T15:56:03.952Z,7.50
2018-03-31T15:58:32.927Z,7.30
2018-03-31T16:01:01.825Z,7.30
2018-03-31T16:03:30.646Z,7.30
2018-03-31T16:06:00.448Z,7.20
2018-03-31T16:08:29.299Z,7.10
2018-03-31T16:10:58.183Z,7.20
2018-03-31T16:13:27.124Z,7.40
2018-03-31T16:15:56.043Z,7.50
2018-03-31T16:18:26.479Z,7.40
2018-03-31T16:20:56.180Z,7.40
2018-03-31T16:23:25.113Z,7.30
2018-03-31T16:25:54.389Z,7.40
2018-03-31T16:28:24.844Z,7.50
2018-03-31T16:30:53.748Z,7.50
2018-03-31T16:33:23.668Z,7.20
2018-03-31T16:35:53.142Z,7.10
2018-03-31T16:38:23.496Z,7.10
2018-03-31T16:40:53.306Z,7.00
2018-03-31T16:43:22.240Z,7.00
2018-03-31T16:45:52.577Z,7.20
2018-03-31T16:48:21.469Z,7.20
2018-03-31T16:50:50.439Z,7.30
2018-03-31T16:53:20.101Z,7.40
2018-03-31T16:55:50.311Z,7.40
2018-03-31T16:58:21.148Z,7.10
2018-03-31T17:00:50.905Z,7.00
2018-03-31T17:03:20.576Z,6.90
2018-03-31T17:05:50.340Z,7.10
2018-03-31T17:08:20.016Z,7.10
2018-03-31T17:10:50.256Z,6.90
2018-03-31T17:13:20.000Z,6.80
2018-03-31T17:15:49.682Z,6.70
2018-03-31T17:18:20.290Z,6.70
2018-03-31T17:20:50.280Z,6.80
2018-03-31T17:23:20.449Z,6.80
2018-03-31T17:25:50.341Z,6.80
2018-03-31T17:28:20.076Z,6.70
2018-03-31T17:30:50.713Z,6.60
2018-03-31T17:33:20.440Z,6.60
2018-03-31T17:35:49.344Z,6.60
2018-03-31T17:38:19.263Z,6.70
2018-03-31T17:40:49.920Z,6.70
2018-03-31T17:43:18.784Z,6.70
2018-03-31T17:45:47.697Z,6.70
2018-03-31T17:48:16.647Z,6.70
2018-03-31T17:50:45.577Z,6.70
2018-03-31T17:53:14.523Z,6.70
2018-03-31T17:55:44.951Z,6.60
2018-03-31T17:58:14.623Z,6.50
2018-03-31T18:00:44.344Z,6.80
2018-03-31T18:03:14.256Z,6.80
2018-03-31T18:05:43.960Z,6.80
2018-03-31T18:08:15.160Z,6.60
2018-03-31T18:10:44.274Z,6.60
2018-03-31T18:13:14.939Z,6.60
2018-03-31T18:15:44.956Z,6.60
2018-03-31T18:18:14.646Z,6.60
2018-03-31T18:20:44.340Z,6.60
2018-03-31T18:23:14.100Z,6.60
2018-03-31T18:25:43.740Z,6.50
2018-03-31T18:28:12.600Z,6.50
2018-03-31T18:30:43.260Z,6.70
2018-03-31T18:33:14.045Z,6.60
2018-03-31T18:35:43.740Z,6.50
2018-03-31T18:38:15.081Z,6.30
2018-03-31T18:40:45.737Z,6.30
2018-03-31T18:43:17.370Z,6.10
2018-03-31T18:45:46.288Z,6.10
2018-03-31T18:48:16.043Z,6.30
2018-03-31T18:50:45.716Z,6.30
2018-03-31T18:53:15.480Z,6.10
2018-03-31T18:55:44.340Z,6.00
2018-03-31T18:58:13.260Z,6.10
2018-03-31T19:00:43.029Z,6.00
2018-03-31T19:03:12.660Z,5.90
2018-03-31T19:05:42.421Z,6.10
2018-03-31T19:08:12.301Z,6.00
2018-03-31T19:10:42.047Z,6.00
2018-03-31T19:13:11.780Z,5.90
2018-03-31T19:15:41.440Z,5.90
2018-03-31T19:18:12.538Z,5.90
2018-03-31T19:20:41.428Z,5.90
2018-03-31T19:23:11.361Z,5.90
2018-03-31T19:25:41.166Z,6.00
2018-03-31T19:28:10.143Z,6.00
2018-03-31T19:30:45.817Z,5.70
2018-03-31T19:33:14.733Z,5.70
2018-03-31T19:35:49.982Z,5.80
2018-03-31T19:38:19.669Z,5.70
2018-03-31T19:40:48.560Z,5.70
2018-03-31T19:43:19.517Z,5.70
2018-03-31T19:45:49.209Z,5.40
2018-03-31T19:48:18.921Z,5.50
2018-03-31T19:50:48.738Z,5.50
2018-03-31T19:53:18.737Z,5.20
2018-03-31T19:55:49.408Z,5.20
2018-03-31T19:58:20.024Z,5.30
2018-03-31T20:00:48.927Z,5.20
2018-03-31T20:03:18.604Z,5.10
2018-03-31T20:05:49.056Z,5.30
2018-03-31T20:08:20.576Z,5.40
2018-03-31T20:10:52.688Z,5.40
2018-03-31T20:13:22.898Z,5.30
2018-03-31T20:15:53.384Z,5.40
2018-03-31T20:18:24.021Z,5.20
2018-03-31T20:20:52.884Z,5.20
2018-03-31T20:23:22.568Z,5.40
2018-03-31T20:25:52.244Z,5.30
2018-03-31T20:28:21.087Z,5.30
2018-03-31T20:30:50.880Z,5.20
2018-03-31T20:33:19.780Z,5.20
2018-03-31T20:35:49.081Z,5.40
2018-03-31T20:38:20.750Z,5.50
2018-03-31T20:40:49.637Z,5.50
2018-03-31T20:43:20.346Z,5.70
2018-03-31T20:45:52.141Z,5.20
2018-03-31T20:48:23.552Z,5.20
2018-03-31T20:50:52.501Z,5.40
2018-03-31T20:53:21.381Z,5.50
2018-03-31T20:55:50.277Z,5.50
2018-03-31T20:58:20.073Z,5.20
2018-03-31T21:00:49.028Z,5.10
2018-03-31T21:03:18.680Z,5.40
2018-03-31T21:05:48.445Z,5.40
2018-03-31T21:08:18.168Z,5.40
2018-03-31T21:10:47.880Z,5.40
2018-03-31T21:13:18.032Z,5.60
2018-03-31T21:15:48.963Z,5.60
2018-03-31T21:18:18.726Z,5.40
2018-03-31T21:20:48.972Z,5.30
2018-03-31T21:23:17.870Z,5.30
2018-03-31T21:25:48.843Z,5.60
2018-03-31T21:28:17.769Z,5.50
2018-03-31T21:30:47.537Z,5.40
2018-03-31T21:33:16.539Z,5.40
2018-03-31T21:35:45.499Z,5.40
2018-03-31T21:38:15.160Z,5.20
2018-03-31T21:40:44.980Z,5.20
2018-03-31T21:43:15.468Z,5.20
2018-03-31T21:45:45.215Z,5.50
2018-03-31T21:48:14.933Z,5.60
2018-03-31T21:50:44.641Z,5.40
2018-03-31T21:53:14.363Z,5.20
2018-03-31T21:55:43.220Z,5.20
2018-03-31T21:58:12.127Z,5.20
2018-03-31T22:00:41.019Z,5.30
2018-03-31T22:03:10.691Z,5.30
2018-03-31T22:05:39.580Z,5.30
2018-03-31T22:08:08.465Z,5.20
2018-03-31T22:10:37.326Z,5.10
2018-03-31T22:13:12.527Z,5.20
2018-03-31T22:15:47.915Z,5.20
2018-03-31T22:18:17.599Z,5.30
2018-03-31T22:20:47.280Z,5.20
2018-03-31T22:23:16.188Z,5.20
2018-03-31T22:25:45.100Z,5.20
2018-03-31T22:28:14.749Z,5.30
2018-03-31T22:30:43.628Z,5.20
2018-03-31T22:33:12.516Z,5.20
2018-03-31T22:35:41.390Z,5.20
2018-03-31T22:38:11.669Z,5.20
2018-03-31T22:40:40.629Z,5.10
2018-03-31T22:43:09.502Z,5.10
2018-03-31T22:45:38.395Z,4.90
2018-03-31T22:48:07.260Z,4.90
2018-03-31T22:50:36.933Z,4.90
2018-03-31T22:53:05.848Z,4.90
2018-03-31T22:55:35.560Z,4.80
2018-03-31T22:58:04.454Z,4.80
2018-03-31T23:00:34.218Z,4.70
2018-03-31T23:03:04.348Z,4.50
2018-03-31T23:05:33.600Z,4.50
2018-03-31T23:08:03.588Z,4.40
2018-03-31T23:10:32.768Z,4.30
2018-03-31T23:13:01.913Z,4.30
2018-03-31T23:15:32.310Z,4.10
2018-03-31T23:18:02.279Z,4.20
2018-03-31T23:20:31.528Z,4.20
2018-03-31T23:23:00.980Z,4.20
2018-03-31T23:25:31.015Z,4.20
2018-03-31T23:28:00.201Z,4.20
2018-03-31T23:30:30.221Z,4.50
2018-03-31T23:33:00.251Z,4.50
2018-03-31T23:35:29.483Z,4.50
2018-03-31T23:37:59.440Z,4.40
2018-03-31T23:40:28.928Z,4.40
2018-03-31T23:42:57.835Z,4.40
2018-03-31T23:45:27.584Z,4.10
2018-03-31T23:47:57.399Z,4.00
2018-03-31T23:50:27.067Z,4.20
2018-03-31T23:52:55.954Z,4.10
2018-03-31T23:55:24.859Z,4.20
2018-03-31T23:57:53.727Z,4.20
